Terminal Aerodrome Forecast
Issued by NWS Mt. Holly, NJ

Home | Current Version | Previous Version | Text Only | Print | Product List | Glossary On
Versions: 1 2 3 4 5 6 7 8 9 10 11 12 13 14 15
000
FTUS41 KPHI 210800 AAB
TAFABE
TAF AMD
KABE 210848Z 2109/2206 VRB02KT P6SM BKN035
      TEMPO 2110/2113 5SM BR
     FM211600 20004KT P6SM VCSH SCT025 BKN040
     FM211900 20006KT P6SM -SHRA BKN040 BKN100
     FM212200 16004KT 6SM SHRA SCT025 OVC040
      TEMPO 2200/2203 5SM SHRA BKN025=

USA.gov is the U.S. government's official web portal to all federal, state and local government web resources and services.